Terminal Aerodrome Forecast
Issued by NWS Mt. Holly, NJ

Home | Current Version | Previous Version | Text Only | Print | Product List | Glossary On
Versions: 1 2 3 4 5 6 7 8 9 10 11 12 13 14 15 16 17 18 19 20 21
000
FTUS41 KPHI 200526
TAFTTN
TAF
KTTN 200526Z 2006/2106 00000KT 1/4SM -DZ FG OVC002 WS020/23035KT
     FM201500 23007KT 2SM BR BKN004
     FM201700 24008KT 4SM BR BKN017
     FM201900 24009KT P6SM BKN050
     FM210100 20004KT 2SM BR BKN015
     FM210300 20005KT 1/2SM FG BKN003=

USA.gov is the U.S. government's official web portal to all federal, state and local government web resources and services.